Orange Lake, Florida
Current Conditions -  °F | °C
As of 7:50 AM on Wednesday 26 Nov 2014 (Local Time) from KOCF Reporting Station
Light Rain Light Rain  
Wind Chill: 52°   Ceiling: 800
Heat Index: 52°   Visibility: 7mi
Dew Point: 46°   Wind: 7mph
Humidity: 82%   Direction: 330°NNW
Pressure: 30.07"   Gusts: NA
Location:  29.43°N, 82.22°W
Report Text: KOCF 261250Z 33006KT 7SM -RA BKN008 BKN035 11/08 A3007
Loading
Personal Weather Stations






























Interactive Weather Map New forecast layout! Learn more

10-Day Weather Forecast

Advertisements
Track Severe Weather on mobile